Time;durP1;ratioP1;P1;durP2;ratioP2;P2;SDS_P1;SDS_P2;PMS_P1;PMS_P2;Temp;Humidity;BMP_temperature;BMP_pressure;BME280_temperature;BME280_humidity;BME280_pressure;Samples;Min_cycle;Max_cycle;Signal;HPM_P1;HPM_P2
2022/07/13 00:02:12;;;;;;;3.60;1.07;;;;;;;17.07;65.62;99576.63;4185241;28;20380;-62
2022/07/13 00:04:39;;;;;;;3.80;0.83;;;;;;;17.07;65.69;99582.00;4199260;28;20244;-61
2022/07/13 00:07:05;;;;;;;5.60;1.20;;;;;;;17.02;66.10;99575.56;4202337;28;20236;-62
2022/07/13 00:09:32;;;;;;;2.93;1.10;;;;;;;17.00;66.46;99581.19;4196071;28;21102;-65
2022/07/13 00:11:58;;;;;;;3.93;1.10;;;;;;;16.93;66.71;99569.63;4197724;28;20690;-63
2022/07/13 00:14:25;;;;;;;2.37;0.83;;;;;;;16.92;67.34;99577.88;4190853;28;21643;-61
2022/07/13 00:16:51;;;;;;;4.03;1.03;;;;;;;16.80;68.17;99580.34;4197616;28;20309;-61
2022/07/13 00:19:18;;;;;;;5.57;1.07;;;;;;;16.85;68.23;99577.88;4188369;28;20481;-62
2022/07/13 00:21:44;;;;;;;3.10;1.03;;;;;;;16.78;68.99;99591.25;4181863;28;20355;-63
2022/07/13 00:24:14;;;;;;;5.90;1.20;;;;;;;16.71;69.27;99577.00;4188971;28;20341;-65
2022/07/13 00:26:40;;;;;;;4.87;1.20;;;;;;;16.62;69.72;99580.91;4200153;28;21158;-63
2022/07/13 00:29:07;;;;;;;2.67;1.10;;;;;;;16.64;70.21;99586.91;4195037;28;20240;-64
2022/07/13 00:31:34;;;;;;;6.10;1.27;;;;;;;16.58;70.58;99583.22;4188190;28;21431;-64
2022/07/13 00:34:00;;;;;;;3.40;1.20;;;;;;;16.51;71.14;99577.00;4189036;28;20345;-62
2022/07/13 00:36:27;;;;;;;4.73;1.30;;;;;;;16.51;71.79;99574.31;4199683;28;20232;-62
2022/07/13 00:38:53;;;;;;;3.57;1.30;;;;;;;16.46;72.61;99585.66;4192751;28;20241;-61
2022/07/13 00:41:20;;;;;;;7.30;1.20;;;;;;;16.43;72.98;99580.69;4184981;28;20355;-65
2022/07/13 00:43:46;;;;;;;4.67;1.20;;;;;;;16.40;73.21;99581.09;4194839;28;20232;-61
2022/07/13 00:46:13;;;;;;;6.00;1.30;;;;;;;16.35;73.43;99578.22;4194968;28;20267;-63
2022/07/13 00:48:41;;;;;;;5.63;1.20;;;;;;;16.28;74.69;99577.38;4187424;28;20234;-61
2022/07/13 00:51:07;;;;;;;5.40;1.70;;;;;;;16.37;74.63;99578.84;4189389;28;20319;-62
2022/07/13 00:53:37;;;;;;;3.17;1.33;;;;;;;16.32;75.06;99584.00;4178883;28;22010;-61
2022/07/13 00:56:05;;;;;;;5.73;1.33;;;;;;;16.28;75.59;99577.38;4200867;28;20241;-65
2022/07/13 00:58:32;;;;;;;2.93;1.20;;;;;;;16.28;76.05;99576.56;4184872;28;20527;-61
2022/07/13 01:00:59;;;;;;;9.70;1.83;;;;;;;16.29;76.24;99568.28;4204519;28;22800;-62
2022/07/13 01:03:27;;;;;;;5.33;1.80;;;;;;;16.26;77.02;99568.69;4196526;28;20267;-64
2022/07/13 01:05:53;;;;;;;5.57;1.00;;;;;;;16.20;77.63;99558.75;4199244;28;20245;-63
2022/07/13 01:08:20;;;;;;;5.07;1.47;;;;;;;16.22;77.56;99567.44;4192600;28;20294;-63
2022/07/13 01:10:48;;;;;;;5.00;1.30;;;;;;;16.25;77.43;99564.38;4205294;28;20302;-62
2022/07/13 01:13:16;;;;;;;5.60;1.50;;;;;;;16.26;78.08;99560.63;4191361;28;21588;-62
2022/07/13 01:15:43;;;;;;;3.93;1.40;;;;;;;16.22;78.52;99562.06;4197874;28;20371;-61
2022/07/13 01:18:12;;;;;;;3.70;1.50;;;;;;;16.22;79.30;99562.06;4199831;28;21295;-64
2022/07/13 01:20:41;;;;;;;2.60;1.30;;;;;;;16.18;79.35;99553.59;4199083;28;21226;-63
2022/07/13 01:23:10;;;;;;;4.60;1.70;;;;;;;16.15;80.22;99558.53;4192798;28;20232;-60
2022/07/13 01:25:36;;;;;;;7.27;1.50;;;;;;;16.11;80.58;99555.44;4191210;28;20545;-63
2022/07/13 01:28:03;;;;;;;5.80;1.80;;;;;;;16.17;80.52;99554.63;4183292;28;20252;-64
2022/07/13 01:30:29;;;;;;;5.03;1.70;;;;;;;16.16;81.10;99546.78;4183951;28;20543;-64
2022/07/13 01:32:56;;;;;;;3.70;1.80;;;;;;;16.09;81.71;99562.06;4196171;28;21205;-63
2022/07/13 01:35:23;;;;;;;2.97;1.40;;;;;;;16.13;81.82;99545.34;4197753;28;20237;-63
2022/07/13 01:37:50;;;;;;;3.77;1.57;;;;;;;15.98;82.87;99550.03;4187915;28;20882;-65
2022/07/13 01:40:17;;;;;;;6.20;1.60;;;;;;;16.00;83.58;99539.94;4182324;28;23699;-62
2022/07/13 01:42:48;;;;;;;5.33;1.70;;;;;;;15.96;83.83;99546.72;4200991;28;22763;-62
2022/07/13 01:45:16;;;;;;;3.10;1.80;;;;;;;15.88;84.88;99545.06;4206303;28;20722;-62
2022/07/13 01:47:44;;;;;;;9.03;1.60;;;;;;;15.85;85.12;99534.75;4198134;28;21750;-61
2022/07/13 01:50:12;;;;;;;5.57;1.83;;;;;;;15.83;85.37;99547.53;4193783;28;20558;-61
2022/07/13 01:52:39;;;;;;;4.07;1.63;;;;;;;15.76;86.54;99526.03;4203009;28;20344;-62
2022/07/13 01:55:08;;;;;;;6.43;1.70;;;;;;;15.86;86.12;99533.69;4200231;28;20257;-63
2022/07/13 01:57:35;;;;;;;5.83;1.93;;;;;;;15.80;86.70;99545.22;4203755;28;20287;-62
2022/07/13 02:00:14;;;;;;;4.30;1.70;;;;;;;15.76;87.47;99526.03;4206444;28;20340;-61
2022/07/13 02:02:41;;;;;;;7.70;2.13;;;;;;;15.76;87.36;99535.94;4199591;28;20341;-61
2022/07/13 02:05:09;;;;;;;2.77;2.00;;;;;;;15.72;87.62;99530.13;4209435;28;20236;-64
2022/07/13 02:07:37;;;;;;;4.07;1.83;;;;;;;15.70;88.26;99539.38;4217674;28;20287;-62
2022/07/13 02:10:05;;;;;;;5.03;2.00;;;;;;;15.62;88.82;99527.81;4185281;28;23602;-62
2022/07/13 02:12:32;;;;;;;5.33;1.97;;;;;;;15.66;88.77;99530.06;4186708;28;20245;-62
2022/07/13 02:14:59;;;;;;;5.17;2.33;;;;;;;15.68;88.97;99522.66;4193376;28;20242;-61
2022/07/13 02:17:26;;;;;;;6.07;2.23;;;;;;;15.72;89.06;99534.69;4199263;28;20290;-64
2022/07/13 02:19:52;;;;;;;6.07;2.30;;;;;;;15.63;89.27;99531.31;4182908;28;20394;-62
2022/07/13 02:22:19;;;;;;;6.63;2.23;;;;;;;15.60;89.56;99516.44;4193865;28;20228;-63
2022/07/13 02:24:45;;;;;;;5.67;2.37;;;;;;;15.61;89.75;99534.19;4207023;28;21673;-62
2022/07/13 02:27:12;;;;;;;5.47;2.13;;;;;;;15.66;89.53;99535.44;4199755;28;20319;-60
2022/07/13 02:29:39;;;;;;;4.60;2.40;;;;;;;15.67;90.08;99516.47;4206071;28;20248;-60
2022/07/13 02:32:06;;;;;;;8.27;2.50;;;;;;;15.63;90.25;99542.84;4195744;28;20234;-62
2022/07/13 02:34:32;;;;;;;4.27;2.40;;;;;;;15.66;90.42;99538.13;4190154;28;20249;-64
2022/07/13 02:36:59;;;;;;;5.30;2.50;;;;;;;15.64;90.53;99541.03;4198716;28;22344;-62
2022/07/13 02:39:25;;;;;;;5.27;2.33;;;;;;;15.67;90.66;99531.75;4198705;28;21316;-61
2022/07/13 02:41:52;;;;;;;3.43;2.17;;;;;;;15.69;90.62;99521.66;4203935;28;21829;-60
2022/07/13 02:44:18;;;;;;;7.27;2.43;;;;;;;15.69;90.54;99525.16;4197756;28;21703;-65
2022/07/13 02:46:45;;;;;;;6.03;2.60;;;;;;;15.71;90.46;99533.00;4193371;28;21785;-62
2022/07/13 02:49:11;;;;;;;4.90;2.20;;;;;;;15.67;90.35;99532.56;4189260;28;20419;-63
2022/07/13 02:51:39;;;;;;;5.17;2.30;;;;;;;15.75;90.01;99537.78;4183331;28;20703;-63
2022/07/13 02:54:05;;;;;;;8.67;2.23;;;;;;;15.74;90.39;99527.25;4193820;28;20256;-62
2022/07/13 02:56:32;;;;;;;7.20;2.40;;;;;;;15.76;90.34;99533.25;4197801;28;20237;-64
2022/07/13 02:58:58;;;;;;;4.30;2.33;;;;;;;15.78;90.05;99526.66;4198338;28;20590;-62
2022/07/13 03:01:25;;;;;;;3.53;2.23;;;;;;;15.77;90.56;99537.59;4208407;28;20445;-61
2022/07/13 03:03:51;;;;;;;6.03;2.07;;;;;;;15.80;90.25;99534.50;4193006;28;21095;-61
2022/07/13 03:06:18;;;;;;;6.87;2.17;;;;;;;15.80;90.65;99527.28;4197473;28;20260;-62
2022/07/13 03:08:45;;;;;;;8.30;2.70;;;;;;;15.77;90.09;99533.03;4200327;28;23338;-63
2022/07/13 03:11:11;;;;;;;5.33;2.30;;;;;;;15.80;90.48;99538.03;4205557;28;20236;-61
2022/07/13 03:13:38;;;;;;;2.47;2.13;;;;;;;15.77;90.51;99522.31;4204195;28;20394;-62
2022/07/13 03:16:05;;;;;;;7.73;2.27;;;;;;;15.77;90.69;99526.84;4193612;28;22089;-62
2022/07/13 03:18:33;;;;;;;5.43;2.23;;;;;;;15.76;91.13;99531.41;4182340;28;20287;-63
2022/07/13 03:21:00;;;;;;;5.83;2.10;;;;;;;15.76;90.65;99530.59;4197728;28;21251;-60
2022/07/13 03:23:27;;;;;;;4.70;1.80;;;;;;;15.77;91.16;99524.16;4202170;28;23522;-62
2022/07/13 03:25:53;;;;;;;2.43;1.87;;;;;;;15.72;91.44;99523.94;4203981;28;20233;-60
2022/07/13 03:28:20;;;;;;;5.40;2.03;;;;;;;15.75;90.96;99539.63;4200648;28;20239;-62
2022/07/13 03:30:46;;;;;;;3.53;2.00;;;;;;;15.74;91.14;99544.19;4200216;28;20285;-63
2022/07/13 03:33:13;;;;;;;4.33;2.00;;;;;;;15.74;91.21;99538.00;4226000;28;20348;-62
2022/07/13 03:35:39;;;;;;;4.20;1.80;;;;;;;15.77;91.11;99542.94;4212078;28;20372;-62
2022/07/13 03:38:06;;;;;;;10.17;2.00;;;;;;;15.86;90.43;99536.38;4192074;28;20226;-64
2022/07/13 03:40:32;;;;;;;3.80;1.93;;;;;;;15.85;89.89;99539.25;4205090;28;20244;-64
2022/07/13 03:42:59;;;;;;;8.87;2.00;;;;;;;15.81;90.21;99536.97;4200373;28;20231;-62
2022/07/13 03:45:25;;;;;;;3.00;1.70;;;;;;;15.89;89.96;99535.97;4200553;28;20650;-61
2022/07/13 03:47:52;;;;;;;5.20;1.70;;;;;;;15.91;90.05;99535.78;4194859;28;20544;-61
2022/07/13 03:50:19;;;;;;;2.60;1.70;;;;;;;15.99;88.78;99549.00;4207578;28;20359;-62
2022/07/13 03:52:46;;;;;;;5.27;1.73;;;;;;;16.06;88.49;99549.88;4212977;28;20308;-63
2022/07/13 03:55:14;;;;;;;6.03;1.50;;;;;;;16.03;88.59;99544.88;4209811;28;20260;-62
2022/07/13 03:57:41;;;;;;;4.97;1.60;;;;;;;15.97;89.09;99546.53;4215029;28;25740;-61
2022/07/13 04:00:08;;;;;;;5.87;1.60;;;;;;;16.07;88.78;99553.38;4208984;28;20379;-62
2022/07/13 04:02:34;;;;;;;5.60;1.80;;;;;;;16.08;88.12;99557.69;4206233;28;20236;-62
2022/07/13 04:05:01;;;;;;;3.00;1.40;;;;;;;16.11;88.49;99549.22;4199877;28;21154;-60
2022/07/13 04:07:28;;;;;;;5.73;1.60;;;;;;;16.17;88.48;99554.63;4210497;28;20372;-63
2022/07/13 04:09:54;;;;;;;3.47;1.57;;;;;;;16.21;87.73;99550.50;4207515;28;20387;-65
2022/07/13 04:12:21;;;;;;;3.73;1.40;;;;;;;16.20;87.37;99564.13;4183852;28;20703;-64
2022/07/13 04:14:49;;;;;;;4.07;1.70;;;;;;;16.13;88.22;99561.44;4196079;28;25650;-62
2022/07/13 04:17:16;;;;;;;5.57;1.90;;;;;;;16.12;88.49;99558.94;4199460;28;22597;-64
2022/07/13 04:19:42;;;;;;;4.53;1.80;;;;;;;16.15;88.53;99564.72;4199744;28;21509;-65
2022/07/13 04:22:09;;;;;;;4.60;1.57;;;;;;;16.04;88.40;99566.16;4222841;28;20331;-63
2022/07/13 04:24:35;;;;;;;4.80;1.47;;;;;;;15.98;88.30;99561.59;4204269;28;20326;-64
2022/07/13 04:27:02;;;;;;;2.93;1.60;;;;;;;15.94;89.56;99564.88;4201488;28;20297;-62
2022/07/13 04:29:28;;;;;;;4.33;1.60;;;;;;;15.92;88.76;99565.09;4201237;28;22352;-63
2022/07/13 04:31:55;;;;;;;3.87;1.50;;;;;;;15.96;88.98;99569.00;4208602;28;20278;-63
2022/07/13 04:34:22;;;;;;;6.23;1.80;;;;;;;15.89;88.75;99560.13;4219722;28;20248;-62
2022/07/13 04:36:48;;;;;;;5.40;1.47;;;;;;;15.90;89.21;99571.69;4212000;28;20232;-62
2022/07/13 04:39:15;;;;;;;3.03;1.60;;;;;;;15.91;89.24;99563.44;4203832;28;20236;-66
2022/07/13 04:41:41;;;;;;;2.83;1.40;;;;;;;15.97;88.87;99569.88;4195272;28;20619;-63
2022/07/13 04:44:08;;;;;;;3.70;1.23;;;;;;;15.99;88.82;99563.25;4191679;28;20229;-65
2022/07/13 04:46:35;;;;;;;6.30;1.70;;;;;;;16.00;88.74;99566.78;4206582;28;20290;-63
2022/07/13 04:49:01;;;;;;;7.50;1.70;;;;;;;15.99;88.33;99563.25;4185542;28;20279;-65
2022/07/13 04:51:28;;;;;;;2.47;1.40;;;;;;;15.96;88.67;99562.81;4195656;28;20255;-62
2022/07/13 04:53:54;;;;;;;2.03;1.23;;;;;;;15.98;88.42;99566.13;4190386;28;20326;-62
2022/07/13 04:56:21;;;;;;;7.57;1.77;;;;;;;15.98;88.91;99566.97;4200400;28;20569;-64
2022/07/13 04:58:48;;;;;;;9.33;2.07;;;;;;;16.07;88.45;99570.28;4210410;28;20238;-67
2022/07/13 05:01:14;;;;;;;4.37;1.50;;;;;;;16.04;88.19;99570.72;4245841;28;20760;-66
2022/07/13 05:03:52;;;;;;;5.17;1.60;;;;;;;15.94;88.90;99571.06;4189354;28;20407;-62
2022/07/13 05:06:19;;;;;;;3.47;1.40;;;;;;;15.96;88.90;99574.38;4208578;28;20240;-62
2022/07/13 05:08:46;;;;;;;3.93;1.57;;;;;;;16.00;87.87;99564.09;4209288;28;21690;-64
2022/07/13 05:11:12;;;;;;;2.00;1.20;;;;;;;15.94;88.15;99571.06;4218581;28;20610;-63
2022/07/13 05:13:39;;;;;;;3.67;1.37;;;;;;;16.00;88.58;99574.81;4217618;28;20481;-61
2022/07/13 05:16:05;;;;;;;5.30;1.43;;;;;;;16.00;88.34;99570.28;4189634;28;20239;-65
2022/07/13 05:18:32;;;;;;;5.90;1.70;;;;;;;15.97;88.45;99576.06;4211206;28;21120;-64
2022/07/13 05:21:00;;;;;;;2.20;1.30;;;;;;;16.03;87.55;99579.78;4209005;28;20241;-63
2022/07/13 05:23:27;;;;;;;2.77;1.40;;;;;;;16.02;87.90;99570.09;4203359;28;20232;-65
2022/07/13 05:25:54;;;;;;;3.83;1.50;;;;;;;16.05;87.04;99580.41;4203489;28;25681;-62
2022/07/13 05:28:21;;;;;;;4.60;1.60;;;;;;;16.10;87.44;99575.25;4195628;28;20243;-61
2022/07/13 05:30:47;;;;;;;3.43;1.20;;;;;;;16.13;86.84;99576.69;4200694;28;20239;-64
2022/07/13 05:33:16;;;;;;;4.20;1.50;;;;;;;16.04;87.53;99579.59;4205560;28;20252;-61
2022/07/13 05:35:43;;;;;;;2.37;1.30;;;;;;;16.11;87.96;99565.34;4197681;28;22157;-63
2022/07/13 05:38:09;;;;;;;9.27;2.00;;;;;;;16.16;87.45;99568.25;4200008;28;20233;-63
2022/07/13 05:40:36;;;;;;;4.70;1.50;;;;;;;16.03;88.58;99585.97;4200569;28;20310;-63
2022/07/13 05:43:06;;;;;;;4.97;1.67;;;;;;;16.08;88.68;99573.81;4196449;28;20342;-65
2022/07/13 05:45:33;;;;;;;2.50;1.40;;;;;;;16.14;88.52;99581.06;4204250;28;20229;-64
2022/07/13 05:48:00;;;;;;;5.87;1.47;;;;;;;16.23;87.96;99579.84;4201938;28;20282;-71
2022/07/13 05:50:26;;;;;;;2.33;1.33;;;;;;;16.29;88.19;99589.75;4204508;28;21974;-76
2022/07/13 05:52:53;;;;;;;5.27;1.43;;;;;;;16.40;88.01;99591.84;4195564;28;20237;-72
2022/07/13 05:55:20;;;;;;;3.30;1.63;;;;;;;16.58;87.12;99598.50;4187338;28;20930;-72
2022/07/13 05:57:46;;;;;;;5.67;1.50;;;;;;;16.73;86.28;99601.81;4187824;28;20244;-71
2022/07/13 06:00:14;;;;;;;3.73;1.40;;;;;;;16.88;85.63;99610.53;4194012;28;20672;-71
2022/07/13 06:02:42;;;;;;;3.53;1.60;;;;;;;16.95;85.04;99609.69;4199029;28;20247;-73
2022/07/13 06:05:09;;;;;;;2.23;1.37;;;;;;;16.96;84.40;99600.63;4182058;28;20248;-68
2022/07/13 06:07:36;;;;;;;4.13;1.70;;;;;;;17.10;83.65;99613.00;4200285;28;20248;-68
2022/07/13 06:10:04;;;;;;;2.40;1.30;;;;;;;17.22;82.81;99614.03;4198005;28;21592;-72
2022/07/13 06:12:30;;;;;;;1.97;1.40;;;;;;;17.41;81.98;99619.59;4191090;28;22178;-72
2022/07/13 06:14:57;;;;;;;5.23;1.47;;;;;;;17.38;81.75;99611.97;4194812;28;20229;-74
2022/07/13 06:17:24;;;;;;;5.10;1.30;;;;;;;17.45;80.65;99607.38;4210898;28;21475;-75
2022/07/13 06:19:50;;;;;;;2.73;1.00;;;;;;;17.68;79.41;99615.81;4206152;28;20353;-75
2022/07/13 06:22:17;;;;;;;2.37;1.30;;;;;;;17.81;78.24;99625.72;4203019;28;20239;-75
2022/07/13 06:24:43;;;;;;;6.67;1.17;;;;;;;17.84;77.24;99627.16;4208530;28;20602;-74
2022/07/13 06:27:10;;;;;;;6.93;1.40;;;;;;;18.07;75.29;99624.78;4211498;28;20230;-73
2022/07/13 06:29:37;;;;;;;3.20;1.23;;;;;;;18.12;74.20;99626.84;4204458;28;20248;-72
2022/07/13 06:32:04;;;;;;;7.63;1.40;;;;;;;18.64;72.79;99640.25;4201831;28;21720;-73
2022/07/13 06:34:31;;;;;;;4.00;1.23;;;;;;;19.16;70.06;99627.44;4201671;28;21934;-73
2022/07/13 06:36:57;;;;;;;6.73;1.07;;;;;;;20.26;66.15;99644.78;4223825;28;20545;-72
2022/07/13 06:39:24;;;;;;;4.33;1.17;;;;;;;21.57;60.20;99642.16;4194347;28;20251;-70
2022/07/13 06:41:50;;;;;;;1.67;1.00;;;;;;;22.61;56.10;99646.72;4197087;28;20228;-72
2022/07/13 06:44:17;;;;;;;3.63;1.00;;;;;;;23.91;51.91;99654.78;4212834;28;20660;-74
2022/07/13 06:46:43;;;;;;;2.27;1.17;;;;;;;23.71;50.29;99655.28;4196369;28;25774;-74
2022/07/13 06:49:10;;;;;;;1.70;0.80;;;;;;;24.61;48.53;99664.06;4197631;28;25701;-72
2022/07/13 06:51:37;;;;;;;2.10;0.97;;;;;;;23.67;50.24;99665.00;4179026;28;21093;-75
2022/07/13 06:54:08;;;;;;;1.70;0.80;;;;;;;23.60;51.59;99660.59;4220106;28;23013;-72
2022/07/13 06:56:35;;;;;;;2.30;0.90;;;;;;;24.59;48.11;99666.19;4208047;28;20256;-72
2022/07/13 06:59:01;;;;;;;3.27;1.00;;;;;;;25.35;45.43;99667.97;4202321;28;21178;-73
2022/07/13 07:01:28;;;;;;;2.53;1.07;;;;;;;25.53;45.54;99659.38;4192338;28;25442;-71
2022/07/13 07:03:55;;;;;;;4.23;0.83;;;;;;;25.48;45.48;99660.16;4219482;28;20331;-76
2022/07/13 07:06:21;;;;;;;1.77;1.00;;;;;;;24.99;45.90;99670.38;4203134;28;20616;-71
2022/07/13 07:08:48;;;;;;;2.03;0.93;;;;;;;24.50;47.55;99673.19;4202669;28;22563;-72
2022/07/13 07:11:14;;;;;;;1.80;0.97;;;;;;;24.49;48.34;99650.59;4219469;28;20243;-73
2022/07/13 07:13:41;;;;;;;3.57;1.07;;;;;;;25.04;47.56;99662.25;4203260;28;22903;-72
2022/07/13 07:16:08;;;;;;;3.47;1.47;;;;;;;25.48;45.72;99664.81;4202307;28;22059;-73
2022/07/13 07:18:35;;;;;;;2.33;0.90;;;;;;;24.92;46.63;99667.88;4215289;28;25322;-73
2022/07/13 07:21:02;;;;;;;1.60;0.90;;;;;;;24.63;48.13;99662.72;4226570;28;20232;-72
2022/07/13 07:23:28;;;;;;;4.73;0.90;;;;;;;24.37;47.70;99658.88;4215579;28;20219;-72
2022/07/13 07:25:55;;;;;;;5.00;0.93;;;;;;;24.98;46.81;99663.28;4211632;28;20236;-73
2022/07/13 07:28:21;;;;;;;3.17;1.13;;;;;;;25.19;46.15;99659.72;4219827;28;20619;-72
2022/07/13 07:30:48;;;;;;;3.10;1.10;;;;;;;25.30;45.77;99651.59;4228055;28;21148;-74
2022/07/13 07:33:14;;;;;;;3.70;1.00;;;;;;;24.56;47.60;99644.94;4207776;28;20299;-74
2022/07/13 07:35:41;;;;;;;3.30;0.93;;;;;;;24.38;48.48;99646.09;4217335;28;20236;-72
2022/07/13 07:38:08;;;;;;;2.90;0.90;;;;;;;24.61;48.85;99634.13;4210345;28;20326;-71
2022/07/13 07:40:34;;;;;;;2.37;1.00;;;;;;;24.59;45.13;99652.59;4208688;28;20232;-71
2022/07/13 07:43:01;;;;;;;2.33;1.17;;;;;;;24.06;46.48;99646.00;4207046;28;22811;-71
2022/07/13 07:45:27;;;;;;;3.60;0.73;;;;;;;24.45;46.46;99638.56;4210143;28;21781;-73
2022/07/13 07:47:54;;;;;;;2.83;0.90;;;;;;;24.69;44.47;99643.72;4207648;28;20243;-74
2022/07/13 07:50:21;;;;;;;2.70;0.90;;;;;;;24.70;44.34;99656.22;4217839;28;20926;-71
2022/07/13 07:52:47;;;;;;;4.37;0.97;;;;;;;24.91;42.92;99646.34;4209941;28;20299;-70
2022/07/13 07:55:19;;;;;;;2.27;0.80;;;;;;;24.53;42.54;99645.44;4206767;28;21687;-71
2022/07/13 07:57:47;;;;;;;2.00;0.90;;;;;;;24.50;42.47;99646.78;4206221;28;20240;-71
2022/07/13 08:00:14;;;;;;;2.27;0.80;;;;;;;24.87;42.22;99650.69;4201241;28;20240;-70
2022/07/13 08:02:41;;;;;;;1.93;0.70;;;;;;;25.25;42.06;99657.81;4198943;28;20280;-73
2022/07/13 08:05:08;;;;;;;2.43;0.90;;;;;;;25.13;41.80;99644.38;4198837;28;20360;-69
2022/07/13 08:07:42;;;;;;;3.10;0.80;;;;;;;25.15;42.71;99636.75;4190187;28;20237;-69
2022/07/13 08:10:12;;;;;;;3.10;0.80;;;;;;;24.78;40.81;99636.72;4207496;28;20294;-69
2022/07/13 08:12:57;;;;;;;1.50;0.70;;;;;;;24.83;39.37;99642.22;4196637;28;20253;-71
2022/07/13 08:15:25;;;;;;;2.20;0.63;;;;;;;25.11;39.53;99646.53;4182539;28;21134;-71
2022/07/13 08:17:51;;;;;;;2.50;0.60;;;;;;;25.30;38.85;99646.16;4169660;28;21678;-71
2022/07/13 08:20:18;;;;;;;2.33;0.70;;;;;;;25.06;38.20;99638.31;4187281;28;20232;-71
2022/07/13 08:22:48;;;;;;;3.23;0.70;;;;;;;25.08;39.29;99640.78;4201961;28;20315;-72
2022/07/13 08:25:15;;;;;;;2.10;0.70;;;;;;;25.36;39.20;99648.66;4212625;28;20233;-71
2022/07/13 08:27:43;;;;;;;1.13;0.70;;;;;;;25.52;38.74;99646.84;4207497;28;20239;-70
2022/07/13 08:30:11;;;;;;;2.53;0.80;;;;;;;25.50;39.44;99657.19;4202388;28;20240;-71
2022/07/13 08:32:39;;;;;;;1.73;0.70;;;;;;;25.83;38.56;99658.75;4195773;28;20422;-72
2022/07/13 08:40:39;;;;;;;4.27;1.00;;;;;;;24.90;40.64;99671.94;4224677;28;21328;-51
2022/07/13 08:43:07;;;;;;;2.50;0.60;;;;;;;24.49;40.87;99653.31;4228993;28;21771;-69
2022/07/13 08:45:33;;;;;;;2.87;0.70;;;;;;;24.42;41.77;99669.81;4211031;28;20268;-67
2022/07/13 08:48:00;;;;;;;1.07;0.70;;;;;;;24.50;41.53;99668.56;4213436;28;20244;-73
2022/07/13 08:50:30;;;;;;;4.03;0.70;;;;;;;24.54;40.83;99664.25;4208638;28;20232;-74
2022/07/13 08:52:58;;;;;;;2.00;0.90;;;;;;;24.47;40.64;99662.78;4201636;28;20233;-72
2022/07/13 08:55:24;;;;;;;2.87;0.80;;;;;;;24.70;40.79;99672.56;4191590;28;20406;-74
2022/07/13 08:57:51;;;;;;;4.80;0.70;;;;;;;24.89;41.25;99671.13;4196197;28;23542;-72
2022/07/13 09:00:21;;;;;;;3.63;1.10;;;;;;;24.96;41.48;99676.31;4218295;28;20290;-72
2022/07/13 09:02:49;;;;;;;2.00;0.90;;;;;;;25.08;41.54;99666.13;4202159;28;20234;-73
2022/07/13 09:05:18;;;;;;;3.40;0.67;;;;;;;24.75;42.24;99673.44;4192903;28;20368;-68
2022/07/13 09:08:05;;;;;;;7.57;0.80;;;;;;;25.03;40.51;99674.25;4205355;28;20851;-72
2022/07/13 09:10:32;;;;;;;2.10;0.90;;;;;;;25.15;40.70;99687.69;4204659;28;26475;-70
2022/07/13 09:12:59;;;;;;;1.80;0.80;;;;;;;24.81;40.23;99679.75;4189609;28;22857;-70
2022/07/13 09:15:29;;;;;;;4.73;0.87;;;;;;;24.79;40.48;99680.00;4185303;28;20235;-71
2022/07/13 09:17:56;;;;;;;6.67;1.10;;;;;;;24.54;41.68;99669.69;4204093;28;20565;-74
2022/07/13 09:20:23;;;;;;;3.63;0.80;;;;;;;24.46;40.11;99677.44;4212285;28;20406;-76
2022/07/13 09:23:01;;;;;;;3.37;0.93;;;;;;;24.37;41.30;99680.63;4191627;28;20244;-73
2022/07/13 09:25:29;;;;;;;1.87;0.80;;;;;;;24.60;41.17;99690.41;4184968;28;20282;-72
2022/07/13 09:28:07;;;;;;;8.20;0.80;;;;;;;24.43;40.38;99693.19;4174261;28;20237;-74
2022/07/13 09:30:35;;;;;;;3.90;0.80;;;;;;;24.66;40.52;99690.50;4167370;28;22722;-73
2022/07/13 09:33:02;;;;;;;4.70;0.97;;;;;;;24.79;40.02;99693.59;4177202;28;21187;-74
2022/07/13 09:35:45;;;;;;;4.77;0.80;;;;;;;24.76;41.23;99696.84;4186593;28;21625;-67
2022/07/13 09:38:35;;;;;;;6.87;1.17;;;;;;;24.73;41.37;99700.09;4182159;28;22879;-74
2022/07/13 09:41:14;;;;;;;2.37;0.73;;;;;;;24.71;40.59;99696.78;4190476;28;20321;-72
2022/07/13 09:47:01;;;;;;;3.13;1.03;;;;;;;24.82;40.00;99698.53;4198972;28;21803;-69
2022/07/13 09:49:39;;;;;;;4.83;0.90;;;;;;;25.02;38.65;99713.41;4186110;28;22817;-71
2022/07/13 09:52:07;;;;;;;2.87;0.97;;;;;;;24.93;38.87;99714.97;4200272;28;21842;-72
2022/07/13 09:54:35;;;;;;;3.50;0.70;;;;;;;24.76;40.28;99705.00;4187914;28;20242;-73
2022/07/13 09:57:05;;;;;;;4.17;0.70;;;;;;;24.79;40.25;99707.19;4219919;28;20240;-70
2022/07/13 09:59:34;;;;;;;7.70;0.80;;;;;;;25.08;41.32;99712.41;4196768;28;20247;-71
2022/07/13 10:02:02;;;;;;;10.07;1.00;;;;;;;25.03;40.48;99709.63;4192421;28;22314;-73
2022/07/13 10:04:29;;;;;;;6.57;1.50;;;;;;;24.94;40.67;99709.28;4184322;28;20237;-72
2022/07/13 10:07:14;;;;;;;3.80;0.63;;;;;;;25.08;40.60;99701.50;4180723;28;20243;-74
2022/07/13 10:09:41;;;;;;;2.83;0.67;;;;;;;24.98;42.90;99704.13;4183729;28;20598;-72
2022/07/13 10:12:08;;;;;;;2.13;0.80;;;;;;;25.05;40.75;99707.44;4181366;28;20253;-74
2022/07/13 10:14:35;;;;;;;4.07;0.77;;;;;;;24.97;40.60;99705.22;4191043;28;20843;-74
2022/07/13 10:17:10;;;;;;;3.77;1.17;;;;;;;25.08;40.81;99709.69;4192292;28;20535;-71
2022/07/13 10:19:43;;;;;;;6.73;1.10;;;;;;;25.11;42.52;99711.06;4182719;28;21199;-73
2022/07/13 10:22:14;;;;;;;6.70;1.23;;;;;;;25.12;42.19;99707.25;4198159;28;21517;-72
2022/07/13 10:24:59;;;;;;;5.57;1.20;;;;;;;24.88;42.44;99713.00;4192415;28;20284;-71
2022/07/13 10:27:36;;;;;;;3.27;1.03;;;;;;;24.92;42.08;99705.16;4187566;28;20236;-72
2022/07/13 10:30:10;;;;;;;3.37;0.93;;;;;;;24.54;43.93;99712.41;4189057;28;20356;-73
2022/07/13 10:32:39;;;;;;;4.17;1.10;;;;;;;24.68;45.21;99713.63;4191776;28;21593;-75
2022/07/13 10:35:10;;;;;;;7.93;1.27;;;;;;;24.93;43.65;99706.78;4186528;28;20260;-74
2022/07/13 10:38:15;;;;;;;3.67;0.97;;;;;;;24.84;42.60;99712.72;4203213;28;20245;-73
2022/07/13 10:40:42;;;;;;;2.67;1.03;;;;;;;25.02;43.67;99716.97;4207613;28;20235;-73
2022/07/13 10:43:09;;;;;;;7.67;1.20;;;;;;;25.15;43.72;99718.44;4182628;28;21211;-71
2022/07/13 10:45:48;;;;;;;6.43;1.00;;;;;;;25.11;43.15;99706.44;4188439;28;22210;-72
2022/07/13 10:48:30;;;;;;;6.13;1.37;;;;;;;25.30;43.36;99714.25;4176322;28;20237;-75
2022/07/13 10:50:58;;;;;;;3.47;1.30;;;;;;;25.34;42.69;99707.19;4193229;28;20298;-74
2022/07/13 10:53:45;;;;;;;7.63;1.10;;;;;;;25.18;42.52;99700.81;4183615;28;21458;-72
2022/07/13 10:56:19;;;;;;;3.50;1.30;;;;;;;25.18;43.52;99712.50;4196417;28;20228;-75
2022/07/13 10:58:47;;;;;;;6.67;1.30;;;;;;;25.15;43.61;99709.47;4195837;28;20605;-75
2022/07/13 11:01:42;;;;;;;6.93;1.17;;;;;;;25.31;43.16;99713.16;4191256;28;20237;-68
2022/07/13 11:04:12;;;;;;;7.83;1.30;;;;;;;25.14;43.39;99716.78;4195307;28;20386;-70
2022/07/13 11:06:39;;;;;;;9.57;1.47;;;;;;;25.50;43.64;99714.41;4186413;28;20287;-75
2022/07/13 11:09:15;;;;;;;2.90;1.10;;;;;;;25.40;43.03;99697.97;4202717;28;22023;-72
2022/07/13 11:11:53;;;;;;;6.23;1.30;;;;;;;25.32;43.56;99703.91;4189925;28;20635;-72
2022/07/13 11:14:41;;;;;;;2.90;1.17;;;;;;;25.61;42.39;99710.66;4191580;28;20244;-73
2022/07/13 11:17:12;;;;;;;1.67;1.10;;;;;;;25.63;43.68;99710.41;4180395;28;20335;-71
2022/07/13 11:20:07;;;;;;;1.87;1.07;;;;;;;25.75;43.22;99694.66;4202853;28;21737;-74
2022/07/13 11:25:39;;;;;;;3.80;1.00;;;;;;;25.64;41.40;99709.34;4236063;28;23309;-77
2022/07/13 11:28:41;;;;;;;6.40;1.33;;;;;;;25.47;40.94;99715.75;4198987;28;20237;-72
2022/07/13 11:31:11;;;;;;;8.30;1.30;;;;;;;25.53;41.62;99700.25;4186020;28;21088;-75
2022/07/13 11:33:37;;;;;;;4.87;1.00;;;;;;;25.94;41.62;99708.69;4198217;28;20239;-76
2022/07/13 11:36:07;;;;;;;4.00;1.20;;;;;;;26.15;39.68;99706.09;4205941;28;20294;-71
2022/07/13 11:38:44;;;;;;;4.13;1.10;;;;;;;26.30;39.51;99711.63;4214035;28;20746;-74
2022/07/13 11:41:18;;;;;;;7.57;1.10;;;;;;;26.39;38.57;99710.00;4189952;28;20368;-73
2022/07/13 11:43:46;;;;;;;3.27;1.20;;;;;;;26.58;39.32;99728.66;4207024;28;20520;-73
2022/07/13 11:46:13;;;;;;;3.40;1.20;;;;;;;26.42;39.03;99714.13;4188865;28;20233;-75
2022/07/13 11:48:39;;;;;;;3.50;1.20;;;;;;;26.17;39.30;99701.19;4182475;28;20321;-72
2022/07/13 11:51:08;;;;;;;3.07;1.10;;;;;;;26.05;41.31;99704.94;4201467;28;20241;-71
2022/07/13 11:53:35;;;;;;;10.77;1.30;;;;;;;26.04;40.10;99703.31;4183674;28;20236;-73